Аэропорт: Михайловка. Барнаул

ICAO: UNBB

METAR:
2020-10-19 15:00:00
UNBB 191500Z 20005MPS CAVOK 03/M05 Q1029 R24/CLRD66 NOSIG RMK QFE749
METAR:
2020-10-19 14:00:00
TAF UNBB 191400Z 1915/2015 18003G08MPS 9999 -SHRA BKN040CB TEMPO 1916/2003 20008G15MPS 3000 -SHRASN FEW004 BKN016CB BECMG 2004/2006 22006G13MPS